sensor_id;sensor_type;location;lat;lon;timestamp;temperature;humidity
52125;DHT22;38119;52.710;6.398;2022-10-22T00:00:01;13.70;99.90
52125;DHT22;38119;52.710;6.398;2022-10-22T00:02:27;13.70;99.90
52125;DHT22;38119;52.710;6.398;2022-10-22T00:04:53;13.70;99.90
52125;DHT22;38119;52.710;6.398;2022-10-22T00:07:21;13.70;99.90
52125;DHT22;38119;52.710;6.398;2022-10-22T00:09:46;13.70;99.90
52125;DHT22;38119;52.710;6.398;2022-10-22T00:12:14;13.70;99.90
52125;DHT22;38119;52.710;6.398;2022-10-22T00:14:40;13.70;99.90
52125;DHT22;38119;52.710;6.398;2022-10-22T00:17:06;13.70;99.90
52125;DHT22;38119;52.710;6.398;2022-10-22T00:19:32;13.60;99.90
52125;DHT22;38119;52.710;6.398;2022-10-22T00:21:58;13.60;99.90
52125;DHT22;38119;52.710;6.398;2022-10-22T00:24:26;13.60;99.90
52125;DHT22;38119;52.710;6.398;2022-10-22T00:26:52;13.60;99.90
52125;DHT22;38119;52.710;6.398;2022-10-22T00:29:18;13.60;99.90
52125;DHT22;38119;52.710;6.398;2022-10-22T00:31:45;13.60;99.90
52125;DHT22;38119;52.710;6.398;2022-10-22T00:34:19;13.50;99.90
52125;DHT22;38119;52.710;6.398;2022-10-22T00:36:46;13.50;99.90
52125;DHT22;38119;52.710;6.398;2022-10-22T00:39:12;13.50;99.90
52125;DHT22;38119;52.710;6.398;2022-10-22T00:41:44;13.50;99.90
52125;DHT22;38119;52.710;6.398;2022-10-22T00:47:14;13.50;99.90
52125;DHT22;38119;52.710;6.398;2022-10-22T00:49:41;13.50;99.90
52125;DHT22;38119;52.710;6.398;2022-10-22T00:52:07;13.50;99.90
52125;DHT22;38119;52.710;6.398;2022-10-22T00:54:33;13.50;99.90
52125;DHT22;38119;52.710;6.398;2022-10-22T00:57:00;13.50;99.90
52125;DHT22;38119;52.710;6.398;2022-10-22T00:59:27;13.40;99.90
52125;DHT22;38119;52.710;6.398;2022-10-22T01:01:53;13.50;99.90
52125;DHT22;38119;52.710;6.398;2022-10-22T01:04:19;13.40;99.90
52125;DHT22;38119;52.710;6.398;2022-10-22T01:06:45;13.40;99.90
52125;DHT22;38119;52.710;6.398;2022-10-22T01:17:30;13.40;99.90
52125;DHT22;38119;52.710;6.398;2022-10-22T01:20:05;13.40;99.90
52125;DHT22;38119;52.710;6.398;2022-10-22T01:22:39;13.40;99.90
52125;DHT22;38119;52.710;6.398;2022-10-22T01:28:20;13.40;99.90
52125;DHT22;38119;52.710;6.398;2022-10-22T01:30:49;13.40;99.90
52125;DHT22;38119;52.710;6.398;2022-10-22T01:33:18;13.30;99.90
52125;DHT22;38119;52.710;6.398;2022-10-22T01:35:45;13.30;99.90
52125;DHT22;38119;52.710;6.398;2022-10-22T01:38:20;13.40;99.90
52125;DHT22;38119;52.710;6.398;2022-10-22T01:40:48;13.40;99.90
52125;DHT22;38119;52.710;6.398;2022-10-22T01:43:14;13.40;99.90
52125;DHT22;38119;52.710;6.398;2022-10-22T01:45:55;13.30;99.90
52125;DHT22;38119;52.710;6.398;2022-10-22T01:57:09;13.30;99.90
52125;DHT22;38119;52.710;6.398;2022-10-22T02:02:39;13.30;99.90
52125;DHT22;38119;52.710;6.398;2022-10-22T02:05:42;13.30;99.90
52125;DHT22;38119;52.710;6.398;2022-10-22T02:08:13;13.20;99.90
52125;DHT22;38119;52.710;6.398;2022-10-22T02:10:43;13.30;99.90
52125;DHT22;38119;52.710;6.398;2022-10-22T02:13:22;13.30;99.90
52125;DHT22;38119;52.710;6.398;2022-10-22T02:15:50;13.30;99.90
52125;DHT22;38119;52.710;6.398;2022-10-22T02:18:19;13.30;99.90
52125;DHT22;38119;52.710;6.398;2022-10-22T02:20:46;13.20;99.90
52125;DHT22;38119;52.710;6.398;2022-10-22T02:23:13;13.20;99.90
52125;DHT22;38119;52.710;6.398;2022-10-22T02:25:41;13.20;99.90
52125;DHT22;38119;52.710;6.398;2022-10-22T02:30:46;13.20;99.90
52125;DHT22;38119;52.710;6.398;2022-10-22T02:33:26;13.20;99.90
52125;DHT22;38119;52.710;6.398;2022-10-22T02:35:54;13.20;99.90
52125;DHT22;38119;52.710;6.398;2022-10-22T02:38:22;13.20;99.90
52125;DHT22;38119;52.710;6.398;2022-10-22T02:40:49;13.20;99.90
52125;DHT22;38119;52.710;6.398;2022-10-22T02:43:16;13.20;99.90
52125;DHT22;38119;52.710;6.398;2022-10-22T02:45:42;13.20;99.90
52125;DHT22;38119;52.710;6.398;2022-10-22T02:48:08;13.10;99.90
52125;DHT22;38119;52.710;6.398;2022-10-22T02:50:34;13.10;99.90
52125;DHT22;38119;52.710;6.398;2022-10-22T02:52:59;13.10;99.90
52125;DHT22;38119;52.710;6.398;2022-10-22T02:55:25;13.10;99.90
52125;DHT22;38119;52.710;6.398;2022-10-22T02:57:51;13.10;99.90
52125;DHT22;38119;52.710;6.398;2022-10-22T03:00:16;13.00;99.90
52125;DHT22;38119;52.710;6.398;2022-10-22T03:02:42;13.00;99.90
52125;DHT22;38119;52.710;6.398;2022-10-22T03:05:08;13.00;99.90
52125;DHT22;38119;52.710;6.398;2022-10-22T03:07:34;13.10;99.90
52125;DHT22;38119;52.710;6.398;2022-10-22T03:09:59;13.00;99.90
52125;DHT22;38119;52.710;6.398;2022-10-22T03:12:25;13.10;99.90
52125;DHT22;38119;52.710;6.398;2022-10-22T03:14:51;13.10;99.90
52125;DHT22;38119;52.710;6.398;2022-10-22T03:17:16;13.00;99.90
52125;DHT22;38119;52.710;6.398;2022-10-22T03:19:42;13.00;99.90
52125;DHT22;38119;52.710;6.398;2022-10-22T03:22:22;13.10;99.90
52125;DHT22;38119;52.710;6.398;2022-10-22T03:24:53;13.10;99.90
52125;DHT22;38119;52.710;6.398;2022-10-22T03:27:21;13.00;99.90
52125;DHT22;38119;52.710;6.398;2022-10-22T03:29:49;13.00;99.90
52125;DHT22;38119;52.710;6.398;2022-10-22T03:32:15;13.00;99.90
52125;DHT22;38119;52.710;6.398;2022-10-22T03:34:41;13.00;99.90
52125;DHT22;38119;52.710;6.398;2022-10-22T03:37:06;13.00;99.90
52125;DHT22;38119;52.710;6.398;2022-10-22T03:39:33;13.00;99.90
52125;DHT22;38119;52.710;6.398;2022-10-22T03:42:00;12.90;99.90
52125;DHT22;38119;52.710;6.398;2022-10-22T03:44:26;12.90;99.90
52125;DHT22;38119;52.710;6.398;2022-10-22T03:46:52;12.90;99.90
52125;DHT22;38119;52.710;6.398;2022-10-22T03:49:18;12.90;99.90
52125;DHT22;38119;52.710;6.398;2022-10-22T03:51:44;12.90;99.90
52125;DHT22;38119;52.710;6.398;2022-10-22T03:54:09;12.90;99.90
52125;DHT22;38119;52.710;6.398;2022-10-22T03:56:35;12.90;99.90
52125;DHT22;38119;52.710;6.398;2022-10-22T03:59:01;12.90;99.90
52125;DHT22;38119;52.710;6.398;2022-10-22T04:01:27;12.80;99.90
52125;DHT22;38119;52.710;6.398;2022-10-22T04:03:54;12.80;99.90
52125;DHT22;38119;52.710;6.398;2022-10-22T04:06:20;12.80;99.90
52125;DHT22;38119;52.710;6.398;2022-10-22T04:08:46;12.80;99.90
52125;DHT22;38119;52.710;6.398;2022-10-22T04:11:13;12.80;99.90
52125;DHT22;38119;52.710;6.398;2022-10-22T04:13:39;12.80;99.90
52125;DHT22;38119;52.710;6.398;2022-10-22T04:16:12;12.70;99.90
52125;DHT22;38119;52.710;6.398;2022-10-22T04:18:38;12.80;99.90
52125;DHT22;38119;52.710;6.398;2022-10-22T04:21:06;12.80;99.90
52125;DHT22;38119;52.710;6.398;2022-10-22T04:23:31;12.80;99.90
52125;DHT22;38119;52.710;6.398;2022-10-22T04:26:02;12.80;99.90
52125;DHT22;38119;52.710;6.398;2022-10-22T04:28:28;12.80;99.90
52125;DHT22;38119;52.710;6.398;2022-10-22T04:30:54;12.80;99.90
52125;DHT22;38119;52.710;6.398;2022-10-22T04:33:20;12.80;99.90
52125;DHT22;38119;52.710;6.398;2022-10-22T04:35:45;12.80;99.90
52125;DHT22;38119;52.710;6.398;2022-10-22T04:38:11;12.80;99.90
52125;DHT22;38119;52.710;6.398;2022-10-22T04:40:37;12.80;99.90
52125;DHT22;38119;52.710;6.398;2022-10-22T04:43:03;12.70;99.90
52125;DHT22;38119;52.710;6.398;2022-10-22T04:45:28;12.70;99.90
52125;DHT22;38119;52.710;6.398;2022-10-22T04:47:54;12.80;99.90
52125;DHT22;38119;52.710;6.398;2022-10-22T04:50:20;12.70;99.90
52125;DHT22;38119;52.710;6.398;2022-10-22T04:52:45;12.80;99.90
52125;DHT22;38119;52.710;6.398;2022-10-22T04:55:11;12.80;99.90
52125;DHT22;38119;52.710;6.398;2022-10-22T04:57:36;12.80;99.90
52125;DHT22;38119;52.710;6.398;2022-10-22T05:00:03;12.80;99.90
52125;DHT22;38119;52.710;6.398;2022-10-22T05:02:29;12.70;99.90
52125;DHT22;38119;52.710;6.398;2022-10-22T05:04:55;12.80;99.90
52125;DHT22;38119;52.710;6.398;2022-10-22T05:07:20;12.80;99.90
52125;DHT22;38119;52.710;6.398;2022-10-22T05:09:46;12.80;99.90
52125;DHT22;38119;52.710;6.398;2022-10-22T05:12:11;12.80;99.90
52125;DHT22;38119;52.710;6.398;2022-10-22T05:14:37;12.80;99.90
52125;DHT22;38119;52.710;6.398;2022-10-22T05:17:03;12.80;99.90
52125;DHT22;38119;52.710;6.398;2022-10-22T05:19:29;12.70;99.90
52125;DHT22;38119;52.710;6.398;2022-10-22T05:21:57;12.70;99.90
52125;DHT22;38119;52.710;6.398;2022-10-22T05:24:24;12.80;99.90
52125;DHT22;38119;52.710;6.398;2022-10-22T05:26:51;12.80;99.90
52125;DHT22;38119;52.710;6.398;2022-10-22T05:29:17;12.80;99.90
52125;DHT22;38119;52.710;6.398;2022-10-22T05:31:43;12.70;99.90
52125;DHT22;38119;52.710;6.398;2022-10-22T05:34:09;12.80;99.90
52125;DHT22;38119;52.710;6.398;2022-10-22T05:36:35;12.80;99.90
52125;DHT22;38119;52.710;6.398;2022-10-22T05:39:00;12.80;99.90
52125;DHT22;38119;52.710;6.398;2022-10-22T05:41:27;12.80;99.90
52125;DHT22;38119;52.710;6.398;2022-10-22T05:43:57;12.80;99.90
52125;DHT22;38119;52.710;6.398;2022-10-22T05:46:25;12.80;99.90
52125;DHT22;38119;52.710;6.398;2022-10-22T05:48:53;12.80;99.90
52125;DHT22;38119;52.710;6.398;2022-10-22T05:51:23;12.80;99.90
52125;DHT22;38119;52.710;6.398;2022-10-22T05:53:54;12.80;99.90
52125;DHT22;38119;52.710;6.398;2022-10-22T05:56:21;12.80;99.90
52125;DHT22;38119;52.710;6.398;2022-10-22T05:58:47;12.80;99.90
52125;DHT22;38119;52.710;6.398;2022-10-22T06:03:44;12.90;99.90
52125;DHT22;38119;52.710;6.398;2022-10-22T06:06:20;12.90;99.90
52125;DHT22;38119;52.710;6.398;2022-10-22T06:08:48;12.90;99.90
52125;DHT22;38119;52.710;6.398;2022-10-22T06:11:15;12.90;99.90
52125;DHT22;38119;52.710;6.398;2022-10-22T06:13:43;12.90;99.90
52125;DHT22;38119;52.710;6.398;2022-10-22T06:16:09;12.90;99.90
52125;DHT22;38119;52.710;6.398;2022-10-22T06:18:35;13.00;99.90
52125;DHT22;38119;52.710;6.398;2022-10-22T06:21:11;12.90;99.90
52125;DHT22;38119;52.710;6.398;2022-10-22T06:23:38;13.00;99.90
52125;DHT22;38119;52.710;6.398;2022-10-22T06:26:05;13.00;99.90
52125;DHT22;38119;52.710;6.398;2022-10-22T06:28:31;13.00;99.90
52125;DHT22;38119;52.710;6.398;2022-10-22T06:30:58;13.00;99.90
52125;DHT22;38119;52.710;6.398;2022-10-22T06:33:24;13.10;99.90
52125;DHT22;38119;52.710;6.398;2022-10-22T06:35:50;13.10;99.90
52125;DHT22;38119;52.710;6.398;2022-10-22T06:38:16;13.00;99.90
52125;DHT22;38119;52.710;6.398;2022-10-22T06:40:42;13.00;99.90
52125;DHT22;38119;52.710;6.398;2022-10-22T06:43:10;13.10;99.90
52125;DHT22;38119;52.710;6.398;2022-10-22T06:45:36;13.10;99.90
52125;DHT22;38119;52.710;6.398;2022-10-22T06:48:02;13.10;99.90
52125;DHT22;38119;52.710;6.398;2022-10-22T06:50:27;13.00;99.90
52125;DHT22;38119;52.710;6.398;2022-10-22T06:52:53;13.10;99.90
52125;DHT22;38119;52.710;6.398;2022-10-22T06:55:18;13.10;99.90
52125;DHT22;38119;52.710;6.398;2022-10-22T06:57:44;13.10;99.90
52125;DHT22;38119;52.710;6.398;2022-10-22T07:00:10;13.10;99.90
52125;DHT22;38119;52.710;6.398;2022-10-22T07:02:36;13.10;99.90
52125;DHT22;38119;52.710;6.398;2022-10-22T07:05:01;13.20;99.90
52125;DHT22;38119;52.710;6.398;2022-10-22T07:07:27;13.20;99.90
52125;DHT22;38119;52.710;6.398;2022-10-22T07:09:53;13.20;99.90
52125;DHT22;38119;52.710;6.398;2022-10-22T07:12:18;13.20;99.90
52125;DHT22;38119;52.710;6.398;2022-10-22T07:14:44;13.20;99.90
52125;DHT22;38119;52.710;6.398;2022-10-22T07:17:09;13.30;99.90
52125;DHT22;38119;52.710;6.398;2022-10-22T07:19:35;13.30;99.90
52125;DHT22;38119;52.710;6.398;2022-10-22T07:22:01;13.30;99.90
52125;DHT22;38119;52.710;6.398;2022-10-22T07:24:26;13.40;99.90
52125;DHT22;38119;52.710;6.398;2022-10-22T07:26:52;13.30;99.90
52125;DHT22;38119;52.710;6.398;2022-10-22T07:29:18;13.30;99.90
52125;DHT22;38119;52.710;6.398;2022-10-22T07:31:43;13.40;99.90
52125;DHT22;38119;52.710;6.398;2022-10-22T07:34:09;13.30;99.90
52125;DHT22;38119;52.710;6.398;2022-10-22T07:36:35;13.30;99.90
52125;DHT22;38119;52.710;6.398;2022-10-22T07:39:01;13.30;99.90
52125;DHT22;38119;52.710;6.398;2022-10-22T07:41:29;13.30;99.90
52125;DHT22;38119;52.710;6.398;2022-10-22T07:43:56;13.30;99.90
52125;DHT22;38119;52.710;6.398;2022-10-22T07:46:23;13.30;99.90
52125;DHT22;38119;52.710;6.398;2022-10-22T07:48:49;13.30;99.90
52125;DHT22;38119;52.710;6.398;2022-10-22T07:51:15;13.30;99.90
52125;DHT22;38119;52.710;6.398;2022-10-22T07:53:41;13.30;99.90
52125;DHT22;38119;52.710;6.398;2022-10-22T07:56:06;13.30;99.90
52125;DHT22;38119;52.710;6.398;2022-10-22T07:58:32;13.30;99.90
52125;DHT22;38119;52.710;6.398;2022-10-22T08:00:59;13.30;99.90
52125;DHT22;38119;52.710;6.398;2022-10-22T08:03:26;13.30;99.90
52125;DHT22;38119;52.710;6.398;2022-10-22T08:05:52;13.30;99.90
52125;DHT22;38119;52.710;6.398;2022-10-22T08:08:19;13.30;99.90
52125;DHT22;38119;52.710;6.398;2022-10-22T08:10:46;13.40;99.90
52125;DHT22;38119;52.710;6.398;2022-10-22T08:13:13;13.40;99.90
52125;DHT22;38119;52.710;6.398;2022-10-22T08:15:38;13.40;99.90
52125;DHT22;38119;52.710;6.398;2022-10-22T08:18:04;13.40;99.90
52125;DHT22;38119;52.710;6.398;2022-10-22T08:20:30;13.40;99.90
52125;DHT22;38119;52.710;6.398;2022-10-22T08:22:56;13.50;99.90
52125;DHT22;38119;52.710;6.398;2022-10-22T08:25:23;13.50;99.90
52125;DHT22;38119;52.710;6.398;2022-10-22T08:27:48;13.50;99.90
52125;DHT22;38119;52.710;6.398;2022-10-22T08:30:14;13.60;99.90
52125;DHT22;38119;52.710;6.398;2022-10-22T08:32:40;13.60;99.90
52125;DHT22;38119;52.710;6.398;2022-10-22T08:35:06;13.60;99.90
52125;DHT22;38119;52.710;6.398;2022-10-22T08:37:31;13.70;99.90
52125;DHT22;38119;52.710;6.398;2022-10-22T08:39:57;13.70;99.90
52125;DHT22;38119;52.710;6.398;2022-10-22T08:48:13;13.90;99.90
52125;DHT22;38119;52.710;6.398;2022-10-22T08:50:45;14.00;99.90
52125;DHT22;38119;52.710;6.398;2022-10-22T08:53:16;14.10;99.90
52125;DHT22;38119;52.710;6.398;2022-10-22T08:55:43;14.10;99.90
52125;DHT22;38119;52.710;6.398;2022-10-22T08:58:35;14.20;99.90
52125;DHT22;38119;52.710;6.398;2022-10-22T09:01:32;14.30;99.90
52125;DHT22;38119;52.710;6.398;2022-10-22T09:04:15;14.40;99.90
52125;DHT22;38119;52.710;6.398;2022-10-22T09:06:43;14.50;99.90
52125;DHT22;38119;52.710;6.398;2022-10-22T09:09:19;14.60;99.90
52125;DHT22;38119;52.710;6.398;2022-10-22T09:11:48;14.70;99.90
52125;DHT22;38119;52.710;6.398;2022-10-22T09:14:20;14.70;99.90
52125;DHT22;38119;52.710;6.398;2022-10-22T09:19:23;14.80;99.90
52125;DHT22;38119;52.710;6.398;2022-10-22T09:26:57;14.90;99.90
52125;DHT22;38119;52.710;6.398;2022-10-22T09:29:31;14.90;99.90
52125;DHT22;38119;52.710;6.398;2022-10-22T09:31:57;14.80;99.90
52125;DHT22;38119;52.710;6.398;2022-10-22T09:34:22;14.90;99.90
52125;DHT22;38119;52.710;6.398;2022-10-22T09:37:00;14.90;99.90
52125;DHT22;38119;52.710;6.398;2022-10-22T09:39:31;14.90;99.90
52125;DHT22;38119;52.710;6.398;2022-10-22T09:41:56;14.90;99.90
52125;DHT22;38119;52.710;6.398;2022-10-22T09:44:22;14.90;99.90
52125;DHT22;38119;52.710;6.398;2022-10-22T09:46:48;14.90;99.90
52125;DHT22;38119;52.710;6.398;2022-10-22T09:49:16;14.90;99.90
52125;DHT22;38119;52.710;6.398;2022-10-22T09:51:58;14.90;99.90
52125;DHT22;38119;52.710;6.398;2022-10-22T09:54:44;14.90;99.90
52125;DHT22;38119;52.710;6.398;2022-10-22T09:57:16;14.90;99.90
52125;DHT22;38119;52.710;6.398;2022-10-22T09:59:44;14.90;99.90
52125;DHT22;38119;52.710;6.398;2022-10-22T10:02:15;15.00;99.90
52125;DHT22;38119;52.710;6.398;2022-10-22T10:04:48;15.00;99.90
52125;DHT22;38119;52.710;6.398;2022-10-22T10:07:20;15.00;99.90
52125;DHT22;38119;52.710;6.398;2022-10-22T10:09:47;15.10;99.90
52125;DHT22;38119;52.710;6.398;2022-10-22T10:12:43;15.20;99.90
52125;DHT22;38119;52.710;6.398;2022-10-22T10:20:40;15.40;99.90
52125;DHT22;38119;52.710;6.398;2022-10-22T10:23:18;15.40;99.90
52125;DHT22;38119;52.710;6.398;2022-10-22T10:36:57;15.40;99.90
52125;DHT22;38119;52.710;6.398;2022-10-22T10:42:28;15.30;99.90
52125;DHT22;38119;52.710;6.398;2022-10-22T10:56:12;15.20;99.90
52125;DHT22;38119;52.710;6.398;2022-10-22T11:04:33;15.20;99.90
52125;DHT22;38119;52.710;6.398;2022-10-22T11:07:08;15.20;99.90
52125;DHT22;38119;52.710;6.398;2022-10-22T11:09:47;15.10;99.90
52125;DHT22;38119;52.710;6.398;2022-10-22T11:12:23;15.10;99.90
52125;DHT22;38119;52.710;6.398;2022-10-22T11:17:40;15.20;99.90
52125;DHT22;38119;52.710;6.398;2022-10-22T11:23:04;15.20;99.90
52125;DHT22;38119;52.710;6.398;2022-10-22T11:25:35;15.20;99.90
52125;DHT22;38119;52.710;6.398;2022-10-22T11:28:24;15.20;99.90
52125;DHT22;38119;52.710;6.398;2022-10-22T11:31:04;15.20;99.90
52125;DHT22;38119;52.710;6.398;2022-10-22T11:34:05;15.30;99.90
52125;DHT22;38119;52.710;6.398;2022-10-22T11:36:32;15.40;99.90
52125;DHT22;38119;52.710;6.398;2022-10-22T11:39:02;15.40;99.90
52125;DHT22;38119;52.710;6.398;2022-10-22T11:41:29;15.50;99.90
52125;DHT22;38119;52.710;6.398;2022-10-22T11:49:17;15.70;99.90
52125;DHT22;38119;52.710;6.398;2022-10-22T11:51:44;15.80;99.90
52125;DHT22;38119;52.710;6.398;2022-10-22T11:54:39;15.80;99.90
52125;DHT22;38119;52.710;6.398;2022-10-22T11:59:59;15.90;99.90
52125;DHT22;38119;52.710;6.398;2022-10-22T12:05:16;15.90;99.90
52125;DHT22;38119;52.710;6.398;2022-10-22T12:07:58;15.90;99.90
52125;DHT22;38119;52.710;6.398;2022-10-22T12:10:47;15.90;99.90
52125;DHT22;38119;52.710;6.398;2022-10-22T12:13:22;15.90;99.90
52125;DHT22;38119;52.710;6.398;2022-10-22T12:15:52;15.90;99.90
52125;DHT22;38119;52.710;6.398;2022-10-22T12:18:23;15.80;99.90
52125;DHT22;38119;52.710;6.398;2022-10-22T12:20:51;15.90;99.90
52125;DHT22;38119;52.710;6.398;2022-10-22T12:23:17;15.90;99.90
52125;DHT22;38119;52.710;6.398;2022-10-22T12:25:43;15.90;99.90
52125;DHT22;38119;52.710;6.398;2022-10-22T12:28:12;15.90;99.90
52125;DHT22;38119;52.710;6.398;2022-10-22T12:30:38;16.00;99.90
52125;DHT22;38119;52.710;6.398;2022-10-22T12:33:06;16.00;99.90
52125;DHT22;38119;52.710;6.398;2022-10-22T12:35:40;16.10;99.90
52125;DHT22;38119;52.710;6.398;2022-10-22T12:38:21;16.00;99.90
52125;DHT22;38119;52.710;6.398;2022-10-22T12:40:50;16.00;99.90
52125;DHT22;38119;52.710;6.398;2022-10-22T12:43:26;16.00;99.90
52125;DHT22;38119;52.710;6.398;2022-10-22T12:45:53;16.00;99.90
52125;DHT22;38119;52.710;6.398;2022-10-22T12:48:26;16.00;99.90
52125;DHT22;38119;52.710;6.398;2022-10-22T12:50:54;16.00;99.90
52125;DHT22;38119;52.710;6.398;2022-10-22T12:53:30;16.00;99.90
52125;DHT22;38119;52.710;6.398;2022-10-22T12:56:10;16.00;99.90
52125;DHT22;38119;52.710;6.398;2022-10-22T12:58:39;16.10;99.90
52125;DHT22;38119;52.710;6.398;2022-10-22T13:01:06;16.10;99.90
52125;DHT22;38119;52.710;6.398;2022-10-22T13:03:41;16.10;99.90
52125;DHT22;38119;52.710;6.398;2022-10-22T13:06:34;16.10;99.90
52125;DHT22;38119;52.710;6.398;2022-10-22T13:09:11;16.20;99.90
52125;DHT22;38119;52.710;6.398;2022-10-22T13:11:55;16.10;99.90
52125;DHT22;38119;52.710;6.398;2022-10-22T13:14:34;16.20;99.90
52125;DHT22;38119;52.710;6.398;2022-10-22T13:17:13;16.20;99.90
52125;DHT22;38119;52.710;6.398;2022-10-22T13:19:58;16.20;99.90
52125;DHT22;38119;52.710;6.398;2022-10-22T13:22:38;16.20;99.90
52125;DHT22;38119;52.710;6.398;2022-10-22T13:27:30;16.30;99.90
52125;DHT22;38119;52.710;6.398;2022-10-22T13:30:00;16.30;99.90
52125;DHT22;38119;52.710;6.398;2022-10-22T13:32:31;16.30;99.90
52125;DHT22;38119;52.710;6.398;2022-10-22T13:34:59;16.40;99.90
52125;DHT22;38119;52.710;6.398;2022-10-22T13:37:27;16.50;99.90
52125;DHT22;38119;52.710;6.398;2022-10-22T13:39:54;16.50;99.90
52125;DHT22;38119;52.710;6.398;2022-10-22T13:42:19;16.50;99.90
52125;DHT22;38119;52.710;6.398;2022-10-22T13:44:45;16.60;99.90
52125;DHT22;38119;52.710;6.398;2022-10-22T13:47:25;16.60;99.90
52125;DHT22;38119;52.710;6.398;2022-10-22T13:50:00;16.70;99.90
52125;DHT22;38119;52.710;6.398;2022-10-22T13:55:01;16.80;99.90
52125;DHT22;38119;52.710;6.398;2022-10-22T13:57:27;16.90;99.90
52125;DHT22;38119;52.710;6.398;2022-10-22T13:59:52;16.90;99.90
52125;DHT22;38119;52.710;6.398;2022-10-22T14:02:18;16.90;99.90
52125;DHT22;38119;52.710;6.398;2022-10-22T14:04:45;16.90;99.90
52125;DHT22;38119;52.710;6.398;2022-10-22T14:07:15;16.80;99.90
52125;DHT22;38119;52.710;6.398;2022-10-22T14:09:42;16.70;99.90
52125;DHT22;38119;52.710;6.398;2022-10-22T14:12:12;16.70;99.90
52125;DHT22;38119;52.710;6.398;2022-10-22T14:14:38;16.60;99.90
52125;DHT22;38119;52.710;6.398;2022-10-22T14:17:05;16.50;99.90
52125;DHT22;38119;52.710;6.398;2022-10-22T14:19:33;16.50;99.90
52125;DHT22;38119;52.710;6.398;2022-10-22T14:21:58;16.40;99.90
52125;DHT22;38119;52.710;6.398;2022-10-22T14:24:24;16.30;99.90
52125;DHT22;38119;52.710;6.398;2022-10-22T14:26:50;16.30;99.90
52125;DHT22;38119;52.710;6.398;2022-10-22T14:29:15;16.40;99.90
52125;DHT22;38119;52.710;6.398;2022-10-22T14:31:42;16.50;99.90
52125;DHT22;38119;52.710;6.398;2022-10-22T14:34:12;16.50;99.90
52125;DHT22;38119;52.710;6.398;2022-10-22T14:36:38;16.60;99.90
52125;DHT22;38119;52.710;6.398;2022-10-22T14:39:04;16.60;99.90
52125;DHT22;38119;52.710;6.398;2022-10-22T14:41:30;16.60;99.90
52125;DHT22;38119;52.710;6.398;2022-10-22T14:43:56;16.70;99.90
52125;DHT22;38119;52.710;6.398;2022-10-22T14:46:23;16.60;99.90
52125;DHT22;38119;52.710;6.398;2022-10-22T14:48:49;16.60;99.90
52125;DHT22;38119;52.710;6.398;2022-10-22T14:51:17;16.70;99.90
52125;DHT22;38119;52.710;6.398;2022-10-22T14:53:43;16.70;99.90
52125;DHT22;38119;52.710;6.398;2022-10-22T14:56:11;16.70;99.90
52125;DHT22;38119;52.710;6.398;2022-10-22T14:58:37;16.70;99.90
52125;DHT22;38119;52.710;6.398;2022-10-22T15:01:03;16.60;99.90
52125;DHT22;38119;52.710;6.398;2022-10-22T15:03:30;16.60;99.90
52125;DHT22;38119;52.710;6.398;2022-10-22T15:05:56;16.60;99.90
52125;DHT22;38119;52.710;6.398;2022-10-22T15:08:22;16.60;99.90
52125;DHT22;38119;52.710;6.398;2022-10-22T15:11:03;16.50;99.90
52125;DHT22;38119;52.710;6.398;2022-10-22T15:13:29;16.50;99.90
52125;DHT22;38119;52.710;6.398;2022-10-22T15:15:55;16.40;99.90
52125;DHT22;38119;52.710;6.398;2022-10-22T15:18:22;16.30;99.90
52125;DHT22;38119;52.710;6.398;2022-10-22T15:21:02;16.40;99.90
52125;DHT22;38119;52.710;6.398;2022-10-22T15:23:28;16.40;99.90
52125;DHT22;38119;52.710;6.398;2022-10-22T15:25:54;16.30;99.90
52125;DHT22;38119;52.710;6.398;2022-10-22T15:28:20;16.30;99.90
52125;DHT22;38119;52.710;6.398;2022-10-22T15:30:57;16.20;99.90
52125;DHT22;38119;52.710;6.398;2022-10-22T15:33:23;16.20;99.90
52125;DHT22;38119;52.710;6.398;2022-10-22T15:35:49;16.10;99.90
52125;DHT22;38119;52.710;6.398;2022-10-22T15:38:14;16.00;99.90
52125;DHT22;38119;52.710;6.398;2022-10-22T15:40:40;15.90;99.90
52125;DHT22;38119;52.710;6.398;2022-10-22T15:43:06;15.80;99.90
52125;DHT22;38119;52.710;6.398;2022-10-22T15:45:31;15.80;99.90
52125;DHT22;38119;52.710;6.398;2022-10-22T15:47:57;15.60;99.90
52125;DHT22;38119;52.710;6.398;2022-10-22T15:50:23;15.60;99.90
52125;DHT22;38119;52.710;6.398;2022-10-22T15:52:48;15.50;99.90
52125;DHT22;38119;52.710;6.398;2022-10-22T15:55:14;15.40;99.90
52125;DHT22;38119;52.710;6.398;2022-10-22T15:57:39;15.40;99.90
52125;DHT22;38119;52.710;6.398;2022-10-22T16:00:06;15.30;99.90
52125;DHT22;38119;52.710;6.398;2022-10-22T16:02:32;15.30;99.90
52125;DHT22;38119;52.710;6.398;2022-10-22T16:04:58;15.20;99.90
52125;DHT22;38119;52.710;6.398;2022-10-22T16:07:25;15.20;99.90
52125;DHT22;38119;52.710;6.398;2022-10-22T16:09:55;15.10;99.90
52125;DHT22;38119;52.710;6.398;2022-10-22T16:12:21;15.00;99.90
52125;DHT22;38119;52.710;6.398;2022-10-22T16:14:49;15.00;99.90
52125;DHT22;38119;52.710;6.398;2022-10-22T16:17:15;14.90;99.90
52125;DHT22;38119;52.710;6.398;2022-10-22T16:19:41;14.80;99.90
52125;DHT22;38119;52.710;6.398;2022-10-22T16:22:07;14.80;99.90
52125;DHT22;38119;52.710;6.398;2022-10-22T16:24:36;14.70;99.90
52125;DHT22;38119;52.710;6.398;2022-10-22T16:27:05;14.70;99.90
52125;DHT22;38119;52.710;6.398;2022-10-22T16:29:30;14.60;99.90
52125;DHT22;38119;52.710;6.398;2022-10-22T16:31:56;14.60;99.90
52125;DHT22;38119;52.710;6.398;2022-10-22T16:34:22;14.60;99.90
52125;DHT22;38119;52.710;6.398;2022-10-22T16:36:47;14.50;99.90
52125;DHT22;38119;52.710;6.398;2022-10-22T16:39:14;14.40;99.90
52125;DHT22;38119;52.710;6.398;2022-10-22T16:41:39;14.40;99.90
52125;DHT22;38119;52.710;6.398;2022-10-22T16:44:06;14.30;99.90
52125;DHT22;38119;52.710;6.398;2022-10-22T16:46:33;14.20;99.90
52125;DHT22;38119;52.710;6.398;2022-10-22T16:49:02;14.30;99.90
52125;DHT22;38119;52.710;6.398;2022-10-22T16:51:28;14.20;99.90
52125;DHT22;38119;52.710;6.398;2022-10-22T16:53:56;14.20;99.90
52125;DHT22;38119;52.710;6.398;2022-10-22T16:56:23;14.20;99.90
52125;DHT22;38119;52.710;6.398;2022-10-22T16:58:50;14.20;99.90
52125;DHT22;38119;52.710;6.398;2022-10-22T17:01:18;14.10;99.90
52125;DHT22;38119;52.710;6.398;2022-10-22T17:03:44;14.10;99.90
52125;DHT22;38119;52.710;6.398;2022-10-22T17:06:10;14.10;99.90
52125;DHT22;38119;52.710;6.398;2022-10-22T17:08:37;14.00;99.90
52125;DHT22;38119;52.710;6.398;2022-10-22T17:11:12;14.00;99.90
52125;DHT22;38119;52.710;6.398;2022-10-22T17:13:42;13.90;99.90
52125;DHT22;38119;52.710;6.398;2022-10-22T17:16:11;13.90;99.90
52125;DHT22;38119;52.710;6.398;2022-10-22T17:18:38;13.90;99.90
52125;DHT22;38119;52.710;6.398;2022-10-22T17:21:06;13.80;99.90